Coyle, Oklahoma
Current Conditions -  °F | °C
As of 7:53 PM on Wednesday 22 Oct 2014 (Local Time) from KGOK Reporting Station
Light Rain Light Rain  
Wind Chill: 69°   Ceiling: 10000
Heat Index: 69°   Visibility: 10mi
Dew Point: 60°   Wind: 8mph
Humidity: 73%   Direction: 180°S
Pressure: 30.1"   Gusts: NA
Location:  35.96°N, 97.23°W
Report Text: KGOK 230053Z AUTO 18007KT 10SM -RA BKN100 21/16 A3010 RMK AO2 RAB45 SLP188 P0000 T02060156
Loading
Personal Weather Stations






























Interactive Weather Map
Tropical Storm Tracking
New forecast layout! Learn more

10-Day Weather Forecast

Advertisements
Track Severe Weather on mobile